METAR AND TAF INFORMATION
METAR FOR YGLA
ADDS - METARS form results

(0620 UTC 26 June 2019)
Data provider http://aviationweather.gov/metar/data/
 
METAR text: YGLA 260600Z AUTO 15009KT 7000 // SCT018 SCT023 OVC029 18/15 Q1022
Conditions at: YGLA (GLADSTONE , AU) observed 0600 UTC 26 June 2019
Temperature: 18.0°C (64°F)
Dewpoint: 15.0°C (59°F) [RH = 83%]
Pressure (altimeter): 30.18 inches Hg (1022.0 mb)
Winds: from the SSE (150 degrees) at 10 MPH (9 knots; 4.6 m/s)
Visibility: 4 miles ( 7 km)
Ceiling: 2900 feet AGL
Clouds: scattered clouds at 1800 feet AGL
scattered clouds at 2300 feet AGL
overcast cloud deck at 2900 feet AGL
Weather: no significant weather observed at this time

METAR text: YGLA 260530Z AUTO 17006KT 9999 // SCT020 SCT030 BKN041 18/16 Q1021
Conditions at: YGLA (GLADSTONE , AU) observed 0530 UTC 26 June 2019
Temperature: 18.0°C (64°F)
Dewpoint: 16.0°C (61°F) [RH = 88%]
Pressure (altimeter): 30.15 inches Hg (1021.0 mb)
Winds: from the S (170 degrees) at 7 MPH (6 knots; 3.1 m/s)
Visibility: 6 or more miles (10+ km)
Ceiling: 4100 feet AGL
Clouds: scattered clouds at 2000 feet AGL
scattered clouds at 3000 feet AGL
broken clouds at 4100 feet AGL
Weather: no significant weather observed at this time

METAR text: YGLA 260525Z AUTO 17006KT 9999 // SCT022 SCT033 SCT041 18/16 Q1021
Conditions at: YGLA (GLADSTONE , AU) observed 0525 UTC 26 June 2019
Temperature: 18.0°C (64°F)
Dewpoint: 16.0°C (61°F) [RH = 88%]
Pressure (altimeter): 30.15 inches Hg (1021.0 mb)
Winds: from the S (170 degrees) at 7 MPH (6 knots; 3.1 m/s)
Visibility: 6 or more miles (10+ km)
Ceiling: at least 12,000 feet AGL
Clouds: scattered clouds at 2200 feet AGL
scattered clouds at 3300 feet AGL
scattered clouds at 4100 feet AGL
Weather: no significant weather observed at this time

Forecast for: AMD
Text: TAF AMD YGLA 260519Z 2606/2618 14013KT 9999 -SHRA SCT015 SCT030
Forecast period: 0600 to 1000 UTC 26 June 2019
Forecast type: FROM: standard forecast or significant change
Winds: from the SE (140 degrees) at 15 MPH (13 knots; 6.7 m/s)
Visibility: 6 or more miles 10+ km)
Ceiling: at least 12,000 feet AGL
Clouds: scattered clouds at 1500 feet AGL
scattered clouds at 3000 feet AGL
Weather: -SHRA  (light rain showers)
Text: BECMG 2610/2612 15010KT 9999 -SHRA BKN015 BKN025 INTER 2606/2615 3000 SHRA BKN015
Forecast period: 1000 to 1800 UTC 26 June 2019
Forecast type: BECOMING: Conditions expected to become as follows by 1200 UTC 26 June 2019
Winds: from the SSE (150 degrees) at 12 MPH (10 knots; 5.1 m/s)
Visibility: 6 or more miles 10+ km)
Ceiling: 1500 feet AGL
Clouds: broken clouds at 1500 feet AGL
broken clouds at 2500 feet AGL
Weather: -SHRA  (light rain showers)
Text:
Forecast period: 0600 to 1500 UTC 26 June 2019
Forecast type: TEMPORARY: The following changes expected for less than half the time period
Visibility: 1.86 miles (2.99 km)
Ceiling: 1500 feet AGL
Clouds: broken clouds at 1500 feet AGL
Weather: SHRA  (rain showers)

 AIRPORT MAP

 RUNWAY INFORMATION
Runway 10 Runway length 5364 ft Runway width 98 ft
Runway elevation 62 ft Runway displaced threshold 0 ft Runway heading 110
Runway 28 Runway length 5364 ft Runway width 98 ft
Runway elevation 26 ft Runway displaced threshold 328 ft Runway heading 290

 AIRPORT FREQUENCIES
Type CTAF Name CTAF Frequency 118.8 MHZ
Type FSS Name BRISBANE C Frequency 119.55 MHZ

 AIRPORT NEAR NAVIGATION AIDS
Type VOR Name Gladstone Frequency 116300 KHZ
Type NDB Name Gladstone Frequency 236 KHZ



The South Africal Virtual Air Force